createdAt,value
2017-07-20T00:01:53.602Z,99752.20
2017-07-20T00:04:21.043Z,99757.17
2017-07-20T00:06:48.520Z,99762.92
2017-07-20T00:09:15.998Z,99764.08
2017-07-20T00:11:43.461Z,99768.23
2017-07-20T00:14:10.897Z,99754.95
2017-07-20T00:16:38.370Z,99761.20
2017-07-20T00:19:05.802Z,99755.45
2017-07-20T00:21:33.286Z,99749.03
2017-07-20T00:24:00.727Z,99748.96
2017-07-20T00:26:28.195Z,99739.33
2017-07-20T00:28:55.785Z,99744.17
2017-07-20T00:31:23.270Z,99741.59
2017-07-20T00:33:50.766Z,99745.56
2017-07-20T00:36:18.342Z,99748.85
2017-07-20T00:38:45.806Z,99750.42
2017-07-20T00:41:13.333Z,99747.14
2017-07-20T00:43:40.793Z,99752.70
2017-07-20T00:46:08.236Z,99756.56
2017-07-20T00:48:35.716Z,99759.58
2017-07-20T00:51:03.168Z,99753.92
2017-07-20T00:53:30.644Z,99748.80
2017-07-20T00:55:58.092Z,99772.02
2017-07-20T00:58:25.648Z,99815.34
2017-07-20T01:00:53.108Z,99822.50
2017-07-20T01:03:20.583Z,99809.22
2017-07-20T01:05:48.028Z,99815.06
2017-07-20T01:08:15.577Z,99819.76
2017-07-20T01:10:43.019Z,99804.62
2017-07-20T01:13:10.591Z,99803.58
2017-07-20T01:15:38.047Z,99805.83
2017-07-20T01:18:05.511Z,99804.36
2017-07-20T01:20:32.970Z,99795.84
2017-07-20T01:23:00.979Z,99799.43
2017-07-20T01:25:28.480Z,99794.24
2017-07-20T01:27:56.045Z,99799.79
2017-07-20T01:30:23.497Z,99799.16
2017-07-20T01:32:51.060Z,99784.42
2017-07-20T01:35:18.514Z,99765.20
2017-07-20T01:37:46.076Z,99749.49
2017-07-20T01:40:13.575Z,99728.08
2017-07-20T01:42:41.024Z,99725.30
2017-07-20T01:45:08.547Z,99721.52
2017-07-20T01:47:36.003Z,99712.66
2017-07-20T01:50:03.514Z,99706.08
2017-07-20T01:52:30.995Z,99705.52
2017-07-20T01:54:58.581Z,99700.33
2017-07-20T01:57:26.036Z,99691.49
2017-07-20T01:59:53.506Z,99694.39
2017-07-20T02:02:21.026Z,99683.52
2017-07-20T02:04:48.506Z,99679.42
2017-07-20T02:07:15.962Z,99678.33
2017-07-20T02:09:43.463Z,99688.48
2017-07-20T02:12:10.916Z,99696.05
2017-07-20T02:14:38.403Z,99708.97
2017-07-20T02:17:05.892Z,99702.01
2017-07-20T02:19:33.448Z,99715.89
2017-07-20T02:22:01.007Z,99713.58
2017-07-20T02:24:28.528Z,99731.79
2017-07-20T02:26:55.981Z,99734.69
2017-07-20T02:29:23.459Z,99741.74
2017-07-20T02:31:50.955Z,99735.67
2017-07-20T02:34:18.656Z,99739.42
2017-07-20T02:36:46.286Z,99733.22
2017-07-20T02:39:13.817Z,99733.73
2017-07-20T02:41:41.295Z,99732.05
2017-07-20T02:44:08.838Z,99739.16
2017-07-20T02:46:36.495Z,99754.72
2017-07-20T02:49:04.105Z,99765.02
2017-07-20T02:51:31.576Z,99770.05
2017-07-20T02:53:59.066Z,99762.17
2017-07-20T02:56:26.552Z,99767.04
2017-07-20T02:58:54.012Z,99773.83
2017-07-20T03:01:21.515Z,99784.38
2017-07-20T03:03:49.016Z,99778.19
2017-07-20T03:06:16.512Z,99767.32
2017-07-20T03:08:44.015Z,99760.59
2017-07-20T03:11:11.568Z,99739.12
2017-07-20T03:13:39.024Z,99724.21
2017-07-20T03:16:06.480Z,99714.21
2017-07-20T03:18:33.952Z,99716.45
2017-07-20T03:21:01.496Z,99719.39
2017-07-20T03:23:28.967Z,99720.16
2017-07-20T03:25:56.516Z,99733.59
2017-07-20T03:28:24.019Z,99739.49
2017-07-20T03:30:51.527Z,99737.45
2017-07-20T03:33:19.091Z,99740.82
2017-07-20T03:35:46.645Z,99743.83
2017-07-20T03:38:14.111Z,99747.05
2017-07-20T03:40:41.659Z,99759.03
2017-07-20T03:43:09.220Z,99765.43
2017-07-20T03:45:36.779Z,99783.02
2017-07-20T03:48:04.267Z,99786.28
2017-07-20T03:50:31.728Z,99769.23
2017-07-20T03:52:59.247Z,99763.36
2017-07-20T03:55:26.719Z,99756.05
2017-07-20T03:57:54.174Z,99767.44
2017-07-20T04:00:21.639Z,99755.52
2017-07-20T04:02:49.116Z,99757.89
2017-07-20T04:05:16.628Z,99750.22
2017-07-20T04:07:44.093Z,99754.64
2017-07-20T04:10:12.247Z,99755.86
2017-07-20T04:12:39.711Z,99765.44
2017-07-20T04:15:07.184Z,99763.45
2017-07-20T04:17:34.636Z,99768.83
2017-07-20T04:20:02.190Z,99768.83
2017-07-20T04:22:29.748Z,99777.23
2017-07-20T04:24:57.471Z,99782.09
2017-07-20T04:27:24.951Z,99782.53
2017-07-20T04:29:52.408Z,99784.60
2017-07-20T04:32:19.881Z,99782.46
2017-07-20T04:34:47.323Z,99795.06
2017-07-20T04:37:14.799Z,99785.46
2017-07-20T04:39:42.368Z,99787.77
2017-07-20T04:42:09.848Z,99789.34
2017-07-20T04:44:37.300Z,99786.20
2017-07-20T04:47:05.203Z,99785.95
2017-07-20T04:49:32.695Z,99797.22
2017-07-20T04:52:00.179Z,99792.25
2017-07-20T04:54:27.629Z,99799.50
2017-07-20T04:56:55.148Z,99803.27
2017-07-20T04:59:22.652Z,99800.52
2017-07-20T05:01:50.107Z,99799.60
2017-07-20T05:04:17.635Z,99798.63
2017-07-20T05:06:45.095Z,99790.05
2017-07-20T05:09:12.575Z,99798.81
2017-07-20T05:11:40.158Z,99798.09
2017-07-20T05:14:07.648Z,99804.20
2017-07-20T05:16:35.098Z,99815.59
2017-07-20T05:19:02.675Z,99830.30
2017-07-20T05:21:30.160Z,99826.89
2017-07-20T05:23:57.631Z,99823.06
2017-07-20T05:26:25.149Z,99820.48
2017-07-20T05:28:52.615Z,99809.36
2017-07-20T05:31:20.163Z,99814.34
2017-07-20T05:33:47.648Z,99819.44
2017-07-20T05:36:15.176Z,99825.17
2017-07-20T05:38:42.634Z,99830.54
2017-07-20T05:41:10.123Z,99828.22
2017-07-20T05:43:37.580Z,99827.25
2017-07-20T05:46:05.064Z,99829.94
2017-07-20T05:48:32.565Z,99832.65
2017-07-20T05:51:00.120Z,99829.42
2017-07-20T05:53:27.567Z,99835.63
2017-07-20T05:55:55.039Z,99827.14
2017-07-20T05:58:22.515Z,99822.78
2017-07-20T06:00:49.983Z,99825.44
2017-07-20T06:03:17.431Z,99834.22
2017-07-20T06:05:44.900Z,99829.08
2017-07-20T06:08:12.346Z,99840.13
2017-07-20T06:10:39.826Z,99839.85
2017-07-20T06:13:07.313Z,99840.21
2017-07-20T06:15:34.758Z,99836.42
2017-07-20T06:18:02.235Z,99835.22
2017-07-20T06:20:29.711Z,99835.00
2017-07-20T06:22:57.255Z,99837.70
2017-07-20T06:25:24.700Z,99835.92
2017-07-20T06:27:52.180Z,99842.94
2017-07-20T06:30:19.732Z,99850.63
2017-07-20T06:32:47.312Z,99848.98
2017-07-20T06:35:14.755Z,99854.48
2017-07-20T06:37:42.306Z,99861.83
2017-07-20T06:40:09.816Z,99863.90
2017-07-20T06:42:37.323Z,99870.95
2017-07-20T06:45:04.799Z,99868.59
2017-07-20T06:47:32.244Z,99876.38
2017-07-20T06:49:59.791Z,99881.32
2017-07-20T06:52:27.249Z,99879.77
2017-07-20T06:54:54.731Z,99880.66
2017-07-20T06:57:22.273Z,99880.70
2017-07-20T06:59:49.823Z,99886.75
2017-07-20T07:02:17.262Z,99877.30
2017-07-20T07:04:44.734Z,99880.73
2017-07-20T07:07:12.203Z,99880.92
2017-07-20T07:09:39.678Z,99881.36
2017-07-20T07:12:07.152Z,99879.64
2017-07-20T07:14:35.163Z,99875.36
2017-07-20T07:17:02.612Z,99878.78
2017-07-20T07:19:30.145Z,99883.64
2017-07-20T07:21:57.598Z,99882.86
2017-07-20T07:24:25.104Z,99891.80
2017-07-20T07:26:52.675Z,99890.67
2017-07-20T07:29:20.124Z,99878.48
2017-07-20T07:31:47.596Z,99885.66
2017-07-20T07:34:15.110Z,99889.94
2017-07-20T07:36:42.575Z,99893.38
2017-07-20T07:39:10.049Z,99894.83
2017-07-20T07:41:37.532Z,99895.89
2017-07-20T07:44:04.988Z,99895.25
2017-07-20T07:46:32.480Z,99899.81
2017-07-20T07:48:59.974Z,99894.23
2017-07-20T07:51:27.445Z,99892.53
2017-07-20T07:53:54.989Z,99884.85
2017-07-20T07:56:22.543Z,99883.47
2017-07-20T07:58:49.996Z,99887.54
2017-07-20T08:01:17.464Z,99898.50
2017-07-20T08:03:44.923Z,99905.48
2017-07-20T08:06:12.373Z,99908.25
2017-07-20T08:08:39.927Z,99912.00
2017-07-20T08:11:07.385Z,99926.36
2017-07-20T08:13:34.845Z,99931.28
2017-07-20T08:16:02.287Z,99924.77
2017-07-20T08:18:29.753Z,99925.36
2017-07-20T08:20:57.204Z,99918.70
2017-07-20T08:23:24.669Z,99920.95
2017-07-20T08:25:52.108Z,99919.47
2017-07-20T08:28:19.579Z,99925.50
2017-07-20T08:30:47.023Z,99920.52
2017-07-20T08:33:14.507Z,99924.95
2017-07-20T08:35:42.055Z,99916.21
2017-07-20T08:38:09.510Z,99916.81
2017-07-20T08:40:36.979Z,99913.95
2017-07-20T08:43:04.522Z,99919.17
2017-07-20T08:45:31.987Z,99916.38
2017-07-20T08:47:59.431Z,99926.56
2017-07-20T08:50:27.010Z,99923.00
2017-07-20T08:52:54.552Z,99929.15
2017-07-20T08:55:22.013Z,99927.77
2017-07-20T08:57:49.464Z,99926.66
2017-07-20T09:00:17.125Z,99923.80
2017-07-20T09:02:44.639Z,99932.43
2017-07-20T09:05:12.099Z,99934.92
2017-07-20T09:07:39.563Z,99930.88
2017-07-20T09:10:07.023Z,99937.21
2017-07-20T09:12:34.816Z,99939.50
2017-07-20T09:15:02.287Z,99950.27
2017-07-20T09:17:29.836Z,99944.44
2017-07-20T09:19:57.298Z,99948.56
2017-07-20T09:22:24.739Z,99952.63
2017-07-20T09:24:52.458Z,99952.40
2017-07-20T09:27:19.903Z,99953.27
2017-07-20T09:29:47.426Z,99972.80
2017-07-20T09:32:14.887Z,99971.57
2017-07-20T09:34:42.344Z,99977.80
2017-07-20T09:37:09.802Z,99975.91
2017-07-20T09:39:37.353Z,99963.31
2017-07-20T09:42:04.820Z,99966.58
2017-07-20T09:44:32.259Z,99968.70
2017-07-20T09:46:59.720Z,99975.48
2017-07-20T09:49:27.273Z,99966.95
2017-07-20T09:51:54.738Z,99980.01
2017-07-20T09:54:22.179Z,99978.83
2017-07-20T09:56:49.647Z,99979.20
2017-07-20T09:59:17.107Z,99969.90
2017-07-20T10:01:44.589Z,99977.86
2017-07-20T10:04:12.052Z,99976.34
2017-07-20T10:06:39.575Z,99979.92
2017-07-20T10:09:07.046Z,99986.26
2017-07-20T10:11:34.588Z,99979.88
2017-07-20T10:14:02.049Z,99986.84
2017-07-20T10:16:29.487Z,99997.02
2017-07-20T10:18:56.962Z,99988.68
2017-07-20T10:21:24.419Z,99996.16
2017-07-20T10:23:51.884Z,99992.72
2017-07-20T10:26:19.339Z,99998.95
2017-07-20T10:28:46.903Z,99992.09
2017-07-20T10:31:14.376Z,99983.09
2017-07-20T10:33:41.906Z,99984.45
2017-07-20T10:36:09.520Z,99989.31
2017-07-20T10:38:37.019Z,99986.11
2017-07-20T10:41:04.480Z,99986.09
2017-07-20T10:43:32.058Z,99986.95
2017-07-20T10:45:59.502Z,99982.45
2017-07-20T10:48:26.947Z,99977.81
2017-07-20T10:50:54.463Z,99978.80
2017-07-20T10:53:21.958Z,99973.95
2017-07-20T10:55:49.431Z,99982.11
2017-07-20T10:58:16.981Z,99978.78
2017-07-20T11:00:44.442Z,99985.05
2017-07-20T11:03:12.834Z,99978.28
2017-07-20T11:05:40.316Z,99977.88
2017-07-20T11:08:07.755Z,99976.47
2017-07-20T11:10:35.291Z,99971.54
2017-07-20T11:13:02.755Z,99966.84
2017-07-20T11:15:31.134Z,99968.95
2017-07-20T11:17:58.695Z,99969.42
2017-07-20T11:20:26.163Z,99964.09
2017-07-20T11:22:53.692Z,99966.23
2017-07-20T11:25:21.206Z,99963.31
2017-07-20T11:27:48.646Z,99959.22
2017-07-20T11:30:16.127Z,99967.49
2017-07-20T11:32:43.628Z,99961.17
2017-07-20T11:35:11.178Z,99959.77
2017-07-20T11:37:38.639Z,99950.72
2017-07-20T11:40:06.199Z,99949.39
2017-07-20T11:42:33.687Z,99949.39
2017-07-20T11:45:01.127Z,99942.41
2017-07-20T11:47:28.586Z,99944.78
2017-07-20T11:49:56.125Z,99947.63
2017-07-20T11:52:23.599Z,99952.25
2017-07-20T11:54:51.039Z,99948.40
2017-07-20T11:57:18.503Z,99947.17
2017-07-20T11:59:46.052Z,99950.89
2017-07-20T12:02:13.514Z,99948.39
2017-07-20T12:04:40.967Z,99947.98
2017-07-20T12:07:08.432Z,99951.84
2017-07-20T12:09:35.983Z,99935.13
2017-07-20T12:12:03.467Z,99938.22
2017-07-20T12:14:30.974Z,99935.55
2017-07-20T12:16:58.413Z,99929.11
2017-07-20T12:19:26.091Z,99930.47
2017-07-20T12:21:53.540Z,99927.00
2017-07-20T12:24:21.026Z,99929.80
2017-07-20T12:26:48.479Z,99930.91
2017-07-20T12:29:15.993Z,99932.34
2017-07-20T12:31:43.435Z,99929.12
2017-07-20T12:34:10.968Z,99925.78
2017-07-20T12:36:38.423Z,99911.28
2017-07-20T12:39:05.970Z,99911.35
2017-07-20T12:41:33.432Z,99908.72
2017-07-20T12:44:00.935Z,99910.56
2017-07-20T12:46:28.371Z,99902.84
2017-07-20T12:48:55.834Z,99909.24
2017-07-20T12:51:23.287Z,99915.28
2017-07-20T12:53:50.810Z,99917.48
2017-07-20T12:56:18.255Z,99911.73
2017-07-20T12:58:45.857Z,99911.93
2017-07-20T13:01:13.380Z,99915.84
2017-07-20T13:03:40.853Z,99912.72
2017-07-20T13:06:08.551Z,99910.13
2017-07-20T13:08:36.039Z,99911.02
2017-07-20T13:11:03.526Z,99913.50
2017-07-20T13:13:30.982Z,99914.89
2017-07-20T13:15:58.533Z,99912.82
2017-07-20T13:18:26.160Z,99917.80
2017-07-20T13:20:53.627Z,99918.19
2017-07-20T13:23:21.160Z,99918.03
2017-07-20T13:25:48.647Z,99925.19
2017-07-20T13:28:16.087Z,99919.36
2017-07-20T13:30:43.564Z,99925.13
2017-07-20T13:33:11.131Z,99921.98
2017-07-20T13:35:38.953Z,99905.58
2017-07-20T13:38:06.440Z,99917.28
2017-07-20T13:40:33.915Z,99920.22
2017-07-20T13:43:01.367Z,99910.66
2017-07-20T13:45:28.842Z,99914.13
2017-07-20T13:47:56.307Z,99921.62
2017-07-20T13:50:23.839Z,99925.85
2017-07-20T13:52:51.312Z,99916.21
2017-07-20T13:55:18.858Z,99912.77
2017-07-20T13:57:46.318Z,99914.10
2017-07-20T14:00:13.874Z,99915.93
2017-07-20T14:02:41.339Z,99914.06
2017-07-20T14:05:08.789Z,99909.92
2017-07-20T14:07:36.248Z,99910.98
2017-07-20T14:10:03.700Z,99914.22
2017-07-20T14:12:31.172Z,99911.92
2017-07-20T14:14:58.663Z,99904.69
2017-07-20T14:17:26.179Z,99909.95
2017-07-20T14:19:53.738Z,99900.67
2017-07-20T14:22:21.196Z,99905.58
2017-07-20T14:24:48.739Z,99900.08
2017-07-20T14:27:16.182Z,99898.50
2017-07-20T14:29:43.755Z,99890.97
2017-07-20T14:32:11.248Z,99891.80
2017-07-20T14:34:38.856Z,99893.34
2017-07-20T14:37:06.300Z,99894.64
2017-07-20T14:39:33.790Z,99891.11
2017-07-20T14:42:01.563Z,99886.84
2017-07-20T14:44:29.028Z,99877.75
2017-07-20T14:46:56.551Z,99885.17
2017-07-20T14:49:24.038Z,99887.95
2017-07-20T14:51:51.579Z,99881.89
2017-07-20T14:54:19.067Z,99879.09
2017-07-20T14:56:46.531Z,99872.09
2017-07-20T14:59:13.975Z,99868.71
2017-07-20T15:01:41.452Z,99871.58
2017-07-20T15:04:08.895Z,99859.81
2017-07-20T15:06:36.418Z,99856.73
2017-07-20T15:09:03.868Z,99854.33
2017-07-20T15:11:31.353Z,99858.35
2017-07-20T15:13:58.895Z,99862.66
2017-07-20T15:16:26.363Z,99857.41
2017-07-20T15:18:53.808Z,99866.64
2017-07-20T15:21:21.312Z,99863.55
2017-07-20T15:23:48.755Z,99859.76
2017-07-20T15:26:16.300Z,99860.59
2017-07-20T15:28:43.742Z,99857.70
2017-07-20T15:31:11.224Z,99858.41
2017-07-20T15:33:38.751Z,99855.66
2017-07-20T15:36:06.233Z,99856.42
2017-07-20T15:38:33.765Z,99857.80
2017-07-20T15:41:01.220Z,99862.89
2017-07-20T15:43:28.695Z,99859.16
2017-07-20T15:45:56.237Z,99857.02
2017-07-20T15:48:23.704Z,99856.18
2017-07-20T15:50:51.161Z,99856.95
2017-07-20T15:53:19.344Z,99863.28
2017-07-20T15:55:46.790Z,99857.51
2017-07-20T15:58:14.331Z,99859.13
2017-07-20T16:00:41.784Z,99849.93
2017-07-20T16:03:09.356Z,99860.09
2017-07-20T16:05:37.118Z,99856.05
2017-07-20T16:08:04.624Z,99868.55
2017-07-20T16:10:32.127Z,99850.84
2017-07-20T16:12:59.644Z,99851.31
2017-07-20T16:15:27.096Z,99852.09
2017-07-20T16:17:54.635Z,99849.05
2017-07-20T16:20:22.077Z,99855.63
2017-07-20T16:22:49.548Z,99857.50
2017-07-20T16:25:17.075Z,99852.77
2017-07-20T16:27:44.584Z,99861.03
2017-07-20T16:30:12.023Z,99851.17
2017-07-20T16:32:39.583Z,99854.67
2017-07-20T16:35:07.107Z,99853.98
2017-07-20T16:37:34.546Z,99858.74
2017-07-20T16:40:02.076Z,99858.39
2017-07-20T16:42:29.525Z,99855.66
2017-07-20T16:44:57.035Z,99860.95
2017-07-20T16:47:24.476Z,99854.17
2017-07-20T16:49:51.959Z,99858.05
2017-07-20T16:52:19.436Z,99863.65
2017-07-20T16:54:46.961Z,99861.86
2017-07-20T16:57:14.400Z,99861.50
2017-07-20T16:59:41.971Z,99854.47
2017-07-20T17:02:09.415Z,99852.89
2017-07-20T17:04:37.006Z,99857.71
2017-07-20T17:07:04.464Z,99854.58
2017-07-20T17:09:31.939Z,99858.30
2017-07-20T17:11:59.458Z,99856.03
2017-07-20T17:14:27.017Z,99867.21
2017-07-20T17:16:54.477Z,99864.27
2017-07-20T17:19:21.954Z,99864.02
2017-07-20T17:21:49.399Z,99868.09
2017-07-20T17:24:16.949Z,99869.37
2017-07-20T17:26:44.561Z,99871.48
2017-07-20T17:29:12.063Z,99873.83
2017-07-20T17:31:39.649Z,99870.89
2017-07-20T17:34:07.134Z,99871.77
2017-07-20T17:36:34.637Z,99875.59
2017-07-20T17:39:02.097Z,99874.74
2017-07-20T17:41:29.595Z,99877.04
2017-07-20T17:43:57.113Z,99874.13
2017-07-20T17:46:24.575Z,99877.59
2017-07-20T17:48:52.179Z,99874.98
2017-07-20T17:51:19.685Z,99878.23
2017-07-20T17:53:47.124Z,99884.02
2017-07-20T17:56:14.598Z,99880.52
2017-07-20T17:58:42.062Z,99884.53
2017-07-20T18:01:09.613Z,99887.30
2017-07-20T18:03:37.095Z,99890.02
2017-07-20T18:06:04.530Z,99891.41
2017-07-20T18:08:32.035Z,99887.64
2017-07-20T18:10:59.541Z,99886.73
2017-07-20T18:13:27.025Z,99897.65
2017-07-20T18:15:54.552Z,99900.53
2017-07-20T18:18:22.019Z,99905.84
2017-07-20T18:20:49.471Z,99908.05
2017-07-20T18:23:16.944Z,99912.22
2017-07-20T18:25:44.389Z,99922.06
2017-07-20T18:28:11.936Z,99920.17
2017-07-20T18:30:39.397Z,99925.36
2017-07-20T18:33:06.883Z,99923.20
2017-07-20T18:35:34.412Z,99927.97
2017-07-20T18:38:01.850Z,99927.16
2017-07-20T18:40:29.423Z,99930.85
2017-07-20T18:42:56.879Z,99930.78
2017-07-20T18:45:24.340Z,99938.63
2017-07-20T18:47:51.891Z,99942.34
2017-07-20T18:50:19.355Z,99942.88
2017-07-20T18:52:46.798Z,99947.72
2017-07-20T18:55:14.403Z,99954.39
2017-07-20T18:57:42.144Z,99955.95
2017-07-20T19:00:09.627Z,99949.66
2017-07-20T19:02:37.148Z,99959.14
2017-07-20T19:05:04.703Z,99957.08
2017-07-20T19:07:32.143Z,99962.30
2017-07-20T19:10:00.077Z,99968.31
2017-07-20T19:12:27.588Z,99965.41
2017-07-20T19:14:55.158Z,99967.03
2017-07-20T19:17:22.608Z,99970.98
2017-07-20T19:19:50.067Z,99979.55
2017-07-20T19:22:17.523Z,99981.14
2017-07-20T19:24:45.075Z,99980.26
2017-07-20T19:27:12.642Z,99990.47
2017-07-20T19:29:40.088Z,99995.98
2017-07-20T19:32:07.646Z,99999.92
2017-07-20T19:34:35.118Z,100004.39
2017-07-20T19:37:02.663Z,100003.06
2017-07-20T19:39:30.103Z,100004.92
2017-07-20T19:41:57.680Z,100006.67
2017-07-20T19:44:25.136Z,100013.94
2017-07-20T19:46:52.603Z,100018.14
2017-07-20T19:49:20.227Z,100013.04
2017-07-20T19:51:47.727Z,100022.70
2017-07-20T19:54:15.176Z,100026.53
2017-07-20T19:56:42.726Z,100029.53
2017-07-20T19:59:10.198Z,100037.59
2017-07-20T20:01:37.692Z,100031.41
2017-07-20T20:04:05.199Z,100039.88
2017-07-20T20:06:32.808Z,100038.32
2017-07-20T20:09:00.318Z,100040.03
2017-07-20T20:11:27.769Z,100042.34
2017-07-20T20:13:55.333Z,100046.50
2017-07-20T20:16:22.800Z,100051.76
2017-07-20T20:18:50.340Z,100054.34
2017-07-20T20:21:17.800Z,100062.50
2017-07-20T20:23:45.299Z,100059.59
2017-07-20T20:26:12.866Z,100064.73
2017-07-20T20:28:40.371Z,100058.71
2017-07-20T20:31:07.820Z,100065.75
2017-07-20T20:33:35.389Z,100072.86
2017-07-20T20:36:02.948Z,100075.30
2017-07-20T20:38:30.526Z,100077.90
2017-07-20T20:40:57.979Z,100078.25
2017-07-20T20:43:25.448Z,100083.34
2017-07-20T20:45:52.939Z,100084.91
2017-07-20T20:48:20.434Z,100089.12
2017-07-20T20:50:47.912Z,100088.92
2017-07-20T20:53:15.400Z,100092.53
2017-07-20T20:55:42.907Z,100096.70
2017-07-20T20:58:10.467Z,100094.34
2017-07-20T21:00:37.935Z,100096.96
2017-07-20T21:03:05.475Z,100102.12
2017-07-20T21:05:32.938Z,100099.13
2017-07-20T21:08:00.500Z,100096.49
2017-07-20T21:10:27.979Z,100093.03
2017-07-20T21:12:55.503Z,100089.29
2017-07-20T21:15:22.963Z,100103.98
2017-07-20T21:17:50.526Z,100101.52
2017-07-20T21:20:17.997Z,100108.67
2017-07-20T21:22:45.458Z,100113.94
2017-07-20T21:25:12.928Z,100116.48
2017-07-20T21:27:40.455Z,100117.73
2017-07-20T21:30:08.030Z,100121.70
2017-07-20T21:32:35.522Z,100119.18
2017-07-20T21:35:03.028Z,100119.22
2017-07-20T21:37:30.476Z,100125.75
2017-07-20T21:39:57.924Z,100127.36
2017-07-20T21:42:25.398Z,100127.97
2017-07-20T21:44:52.853Z,100129.77
2017-07-20T21:47:20.319Z,100137.01
2017-07-20T21:49:49.404Z,100138.42
2017-07-20T21:52:16.963Z,100141.71
2017-07-20T21:54:44.408Z,100137.05
2017-07-20T21:57:11.975Z,100136.20
2017-07-20T21:59:39.424Z,100138.27
2017-07-20T22:02:06.995Z,100141.97
2017-07-20T22:04:34.468Z,100144.82
2017-07-20T22:07:02.009Z,100143.77
2017-07-20T22:09:29.456Z,100146.02
2017-07-20T22:11:56.935Z,100150.61
2017-07-20T22:14:24.480Z,100144.95
2017-07-20T22:16:51.927Z,100155.73
2017-07-20T22:19:19.496Z,100150.28
2017-07-20T22:21:46.939Z,100155.01
2017-07-20T22:24:14.503Z,100154.17
2017-07-20T22:26:41.971Z,100163.14
2017-07-20T22:29:09.519Z,100162.64
2017-07-20T22:31:36.982Z,100163.30
2017-07-20T22:34:04.447Z,100167.45
2017-07-20T22:36:31.890Z,100167.30
2017-07-20T22:38:59.455Z,100163.72
2017-07-20T22:41:27.013Z,100164.54
2017-07-20T22:43:54.479Z,100168.34
2017-07-20T22:46:22.027Z,100170.28
2017-07-20T22:48:49.536Z,100169.06
2017-07-20T22:51:17.035Z,100170.98
2017-07-20T22:53:44.491Z,100168.92
2017-07-20T22:56:11.968Z,100173.89
2017-07-20T22:58:39.507Z,100170.56
2017-07-20T23:01:06.992Z,100177.08
2017-07-20T23:03:34.483Z,100174.72
2017-07-20T23:06:01.952Z,100176.99
2017-07-20T23:08:29.472Z,100177.52
2017-07-20T23:10:57.002Z,100176.15
2017-07-20T23:13:24.459Z,100183.95
2017-07-20T23:15:51.918Z,100187.89
2017-07-20T23:18:19.519Z,100201.07
2017-07-20T23:20:47.012Z,100198.63
2017-07-20T23:23:14.459Z,100189.67
2017-07-20T23:25:41.923Z,100203.62
2017-07-20T23:28:09.400Z,100197.44
2017-07-20T23:30:37.057Z,100202.91
2017-07-20T23:33:04.675Z,100196.80
2017-07-20T23:35:32.179Z,100200.17
2017-07-20T23:37:59.736Z,100193.09
2017-07-20T23:40:27.186Z,100194.53
2017-07-20T23:42:54.756Z,100199.48
2017-07-20T23:45:22.213Z,100207.52
2017-07-20T23:47:49.769Z,100205.49
2017-07-20T23:50:17.328Z,100210.77
2017-07-20T23:52:44.836Z,100213.49
2017-07-20T23:55:12.283Z,100212.76
2017-07-20T23:57:39.753Z,100216.60
